Potts Camp, MS (38659)

2:13 PM CDT on August 30, 2014 (GMT -0500)
University-Oxford | Change Station
CLOSE
Current Station
Airport
Location: Oxford,
Elevation: 453 ft
Nearby Weather Stations

Elev 453 ft 34.38 °N, 89.54 °W | Updated 38 minutes ago

Heavy Rain
Heavy Rain
73 °F
Feels Like 73 °F
N
6
Wind Variable Wind from NNW

Today
High -- | Low -- °F
--% Chance of Precip.
Yesterday
High -- | Low -- °F
Precip. -- in
6:28 AM 7:26 PM
Waxing Crescent, 24% visible
Pressure 30.07 in
Visibility 0.5 miles
Clouds Overcast 100 ft
Dew Point 72 °F
Humidity 94%
Rainfall 0.65 in
Snow Depth Not available.
UV 3 out of 12
Pollen 3.70 out of 12
Ozone Good
PM2.5 Moderate
Flu Activity Not available.
METAR KUOX 301835Z AUTO 33005KT 1/2SM VCTS +RA OVC001 23/22 A3007 RMK AO2 LTG DSNT SW P0065

More Conditions Fewer Conditions

Pressure 30.07 in
Visibility 0.5 miles
Clouds Overcast 100 ft
Dew Point 72 °F
Humidity 94%
Rainfall 0.65 in
Snow Depth Not available.
UV 3 out of 12
Pollen 3.70 out of 12
Ozone Good
PM2.5 Moderate
Flu Activity Not available.
METAR KUOX 301835Z AUTO 33005KT 1/2SM VCTS +RA OVC001 23/22 A3007 RMK AO2 LTG DSNT SW P0065

More Conditions Fewer Conditions

10-Day Weather Forecast

Almanac

Astronomy

Aug. 30, 2014 Rise Set
Actual Time 6:28 AM CDT 7:26 PM CDT
Civil Twilight 6:03 AM CDT 7:52 PM CDT
Nautical Twilight 5:32 AM CDT 8:22 PM CDT
Astronomical Twilight 5:00 AM CDT 8:53 PM CDT
Moon 11:03 AM CDT 10:14 PM CDT
Length of Visible Light 13h 48m
Length of Day
12h 57m
Tomorrow will be 2m 3s shorter.
Waxing Crescent, 24% of the Moon is Illuminated
Today
Waxing Crescent
Sep 2
First Quarter
Sep 8
Full
Sep 15
Last Quarter
Sep 24
New

Today's Extremes

State Highs State Lows

Community

WunderPhotos

Upload Photos

1,748,596 photos uploaded!

WunderBlogs® & News

Nearby

Air Quality

  Air Quality AQ Index Pollutant
Yesterday Moderate
PM2.5
Yesterday Good
OZONE
Current Moderate
PM2.5
Current Good
OZONE
Saturday Good
PM2.5
Saturday Good
OZONE
Sunday Moderate
PM2.5
Sunday Good
OZONE
Monday Moderate
PM2.5
Monday Good
OZONE

Snow Depth

Station Depth Elevation
No new snow has been reported.

Earthquake Activity

City Distance Mag. Time & Date
No recent earthquake activity has been reported nearby.
Minimum magnitude displayed is 2.5.

Coastal Water Temperatures

Place Temperature
No Stations Reporting

Nearby Weather Stations